sensor_id;sensor_type;location;lat;lon;timestamp;temperature;humidity
49855;DHT22;35752;52.164;21.244;2023-03-03T00:00:11;-2.50;99.90
49855;DHT22;35752;52.164;21.244;2023-03-03T00:02:37;-2.40;99.90
49855;DHT22;35752;52.164;21.244;2023-03-03T00:05:03;-2.50;99.90
49855;DHT22;35752;52.164;21.244;2023-03-03T00:07:28;-2.50;99.90
49855;DHT22;35752;52.164;21.244;2023-03-03T00:09:54;-2.50;99.90
49855;DHT22;35752;52.164;21.244;2023-03-03T00:14:45;-2.60;99.90
49855;DHT22;35752;52.164;21.244;2023-03-03T00:17:16;-2.60;99.90
49855;DHT22;35752;52.164;21.244;2023-03-03T00:19:43;-2.60;99.90
49855;DHT22;35752;52.164;21.244;2023-03-03T00:24:52;-2.50;99.90
49855;DHT22;35752;52.164;21.244;2023-03-03T00:29:48;-2.50;99.90
49855;DHT22;35752;52.164;21.244;2023-03-03T00:34:41;-2.40;99.90
49855;DHT22;35752;52.164;21.244;2023-03-03T00:37:18;-2.40;99.90
49855;DHT22;35752;52.164;21.244;2023-03-03T00:39:45;-2.40;99.90
49855;DHT22;35752;52.164;21.244;2023-03-03T00:42:12;-2.40;99.90
49855;DHT22;35752;52.164;21.244;2023-03-03T00:44:42;-2.40;99.90
49855;DHT22;35752;52.164;21.244;2023-03-03T00:47:13;-2.40;99.90
49855;DHT22;35752;52.164;21.244;2023-03-03T00:49:41;-2.30;99.90
49855;DHT22;35752;52.164;21.244;2023-03-03T00:52:13;-2.40;99.90
49855;DHT22;35752;52.164;21.244;2023-03-03T00:54:40;-2.40;99.90
49855;DHT22;35752;52.164;21.244;2023-03-03T00:57:06;-2.40;99.90
49855;DHT22;35752;52.164;21.244;2023-03-03T00:59:31;-2.40;99.90
49855;DHT22;35752;52.164;21.244;2023-03-03T01:01:57;-2.40;99.90
49855;DHT22;35752;52.164;21.244;2023-03-03T01:04:22;-2.50;99.90
49855;DHT22;35752;52.164;21.244;2023-03-03T01:06:48;-2.60;99.90
49855;DHT22;35752;52.164;21.244;2023-03-03T01:09:14;-2.70;99.90
49855;DHT22;35752;52.164;21.244;2023-03-03T01:11:39;-2.70;99.90
49855;DHT22;35752;52.164;21.244;2023-03-03T01:14:05;-2.70;99.90
49855;DHT22;35752;52.164;21.244;2023-03-03T01:16:30;-2.70;99.90
49855;DHT22;35752;52.164;21.244;2023-03-03T01:18:57;-2.70;99.90
49855;DHT22;35752;52.164;21.244;2023-03-03T01:21:22;-2.70;99.90
49855;DHT22;35752;52.164;21.244;2023-03-03T01:23:48;-2.70;99.90
49855;DHT22;35752;52.164;21.244;2023-03-03T01:26:13;-2.80;99.90
49855;DHT22;35752;52.164;21.244;2023-03-03T01:28:39;-2.80;99.90
49855;DHT22;35752;52.164;21.244;2023-03-03T01:31:05;-2.80;99.90
49855;DHT22;35752;52.164;21.244;2023-03-03T01:33:31;-2.80;99.90
49855;DHT22;35752;52.164;21.244;2023-03-03T01:35:57;-2.70;99.90
49855;DHT22;35752;52.164;21.244;2023-03-03T01:38:22;-2.70;99.90
49855;DHT22;35752;52.164;21.244;2023-03-03T01:40:55;-2.60;99.90
49855;DHT22;35752;52.164;21.244;2023-03-03T01:43:21;-2.60;99.90
49855;DHT22;35752;52.164;21.244;2023-03-03T01:50:50;-2.60;99.90
49855;DHT22;35752;52.164;21.244;2023-03-03T01:53:54;-2.70;99.90
49855;DHT22;35752;52.164;21.244;2023-03-03T01:56:12;-2.70;99.90
49855;DHT22;35752;52.164;21.244;2023-03-03T01:58:42;-2.60;99.90
49855;DHT22;35752;52.164;21.244;2023-03-03T02:01:13;-2.70;99.90
49855;DHT22;35752;52.164;21.244;2023-03-03T02:03:40;-2.80;99.90
49855;DHT22;35752;52.164;21.244;2023-03-03T02:06:06;-2.80;99.90
49855;DHT22;35752;52.164;21.244;2023-03-03T02:08:35;-2.70;99.90
49855;DHT22;35752;52.164;21.244;2023-03-03T02:11:03;-2.70;99.90
49855;DHT22;35752;52.164;21.244;2023-03-03T02:13:30;-2.70;99.90
49855;DHT22;35752;52.164;21.244;2023-03-03T02:15:55;-2.70;99.90
49855;DHT22;35752;52.164;21.244;2023-03-03T02:18:21;-2.70;99.90
49855;DHT22;35752;52.164;21.244;2023-03-03T02:28:15;-2.40;99.90
49855;DHT22;35752;52.164;21.244;2023-03-03T02:30:41;-2.30;99.90
49855;DHT22;35752;52.164;21.244;2023-03-03T02:33:06;-2.30;99.90
49855;DHT22;35752;52.164;21.244;2023-03-03T02:35:34;-2.20;99.90
49855;DHT22;35752;52.164;21.244;2023-03-03T02:38:46;-2.20;99.90
49855;DHT22;35752;52.164;21.244;2023-03-03T02:41:00;-2.10;99.90
49855;DHT22;35752;52.164;21.244;2023-03-03T02:43:29;-2.10;99.90
49855;DHT22;35752;52.164;21.244;2023-03-03T02:45:56;-2.10;99.90
49855;DHT22;35752;52.164;21.244;2023-03-03T02:48:22;-2.10;99.90
49855;DHT22;35752;52.164;21.244;2023-03-03T02:50:47;-2.20;99.90
49855;DHT22;35752;52.164;21.244;2023-03-03T02:53:13;-2.20;99.90
49855;DHT22;35752;52.164;21.244;2023-03-03T02:55:38;-2.10;99.90
49855;DHT22;35752;52.164;21.244;2023-03-03T02:58:04;-2.10;99.90
49855;DHT22;35752;52.164;21.244;2023-03-03T03:00:29;-2.10;99.90
49855;DHT22;35752;52.164;21.244;2023-03-03T03:02:56;-2.00;99.90
49855;DHT22;35752;52.164;21.244;2023-03-03T03:05:22;-2.10;99.90
49855;DHT22;35752;52.164;21.244;2023-03-03T03:07:47;-2.10;99.90
49855;DHT22;35752;52.164;21.244;2023-03-03T03:10:13;-2.10;99.90
49855;DHT22;35752;52.164;21.244;2023-03-03T03:12:38;-2.10;99.90
49855;DHT22;35752;52.164;21.244;2023-03-03T03:15:04;-2.10;99.90
49855;DHT22;35752;52.164;21.244;2023-03-03T03:17:30;-2.00;99.90
49855;DHT22;35752;52.164;21.244;2023-03-03T03:19:55;-2.00;99.90
49855;DHT22;35752;52.164;21.244;2023-03-03T03:22:21;-1.90;99.90
49855;DHT22;35752;52.164;21.244;2023-03-03T03:24:46;-1.90;99.90
49855;DHT22;35752;52.164;21.244;2023-03-03T03:27:12;-1.80;99.90
49855;DHT22;35752;52.164;21.244;2023-03-03T03:29:37;-1.90;99.90
49855;DHT22;35752;52.164;21.244;2023-03-03T03:32:03;-1.90;99.90
49855;DHT22;35752;52.164;21.244;2023-03-03T03:34:28;-1.80;99.90
49855;DHT22;35752;52.164;21.244;2023-03-03T03:36:54;-1.80;99.90
49855;DHT22;35752;52.164;21.244;2023-03-03T03:39:19;-1.80;99.90
49855;DHT22;35752;52.164;21.244;2023-03-03T03:41:45;-1.80;99.90
49855;DHT22;35752;52.164;21.244;2023-03-03T03:44:10;-1.80;99.90
49855;DHT22;35752;52.164;21.244;2023-03-03T03:46:36;-1.80;99.90
49855;DHT22;35752;52.164;21.244;2023-03-03T03:49:02;-1.70;99.90
49855;DHT22;35752;52.164;21.244;2023-03-03T03:51:27;-1.70;99.90
49855;DHT22;35752;52.164;21.244;2023-03-03T03:53:53;-1.70;99.90
49855;DHT22;35752;52.164;21.244;2023-03-03T03:56:18;-1.80;99.90
49855;DHT22;35752;52.164;21.244;2023-03-03T03:58:44;-1.80;99.90
49855;DHT22;35752;52.164;21.244;2023-03-03T04:01:09;-1.90;99.90
49855;DHT22;35752;52.164;21.244;2023-03-03T04:03:35;-1.90;99.90
49855;DHT22;35752;52.164;21.244;2023-03-03T04:06:00;-1.90;99.90
49855;DHT22;35752;52.164;21.244;2023-03-03T04:08:26;-2.10;99.90
49855;DHT22;35752;52.164;21.244;2023-03-03T04:10:51;-2.10;99.90
49855;DHT22;35752;52.164;21.244;2023-03-03T04:13:17;-2.20;99.90
49855;DHT22;35752;52.164;21.244;2023-03-03T04:15:42;-2.20;99.90
49855;DHT22;35752;52.164;21.244;2023-03-03T04:18:08;-2.10;99.90
49855;DHT22;35752;52.164;21.244;2023-03-03T04:20:33;-2.10;99.90
49855;DHT22;35752;52.164;21.244;2023-03-03T04:22:59;-2.10;99.90
49855;DHT22;35752;52.164;21.244;2023-03-03T04:25:24;-2.10;99.90
49855;DHT22;35752;52.164;21.244;2023-03-03T04:27:50;-2.20;99.90
49855;DHT22;35752;52.164;21.244;2023-03-03T04:30:17;-2.30;99.90
49855;DHT22;35752;52.164;21.244;2023-03-03T04:32:42;-2.30;99.90
49855;DHT22;35752;52.164;21.244;2023-03-03T04:35:08;-2.40;99.90
49855;DHT22;35752;52.164;21.244;2023-03-03T04:37:34;-2.50;99.90
49855;DHT22;35752;52.164;21.244;2023-03-03T04:40:00;-2.50;99.90
49855;DHT22;35752;52.164;21.244;2023-03-03T04:42:26;-2.50;99.90
49855;DHT22;35752;52.164;21.244;2023-03-03T04:44:52;-2.50;99.90
49855;DHT22;35752;52.164;21.244;2023-03-03T04:47:17;-2.50;99.90
49855;DHT22;35752;52.164;21.244;2023-03-03T04:49:43;-2.40;99.90
49855;DHT22;35752;52.164;21.244;2023-03-03T04:52:09;-2.40;99.90
49855;DHT22;35752;52.164;21.244;2023-03-03T04:54:34;-2.40;99.90
49855;DHT22;35752;52.164;21.244;2023-03-03T04:57:00;-2.30;99.90
49855;DHT22;35752;52.164;21.244;2023-03-03T04:59:25;-2.40;99.90
49855;DHT22;35752;52.164;21.244;2023-03-03T05:01:51;-2.50;99.90
49855;DHT22;35752;52.164;21.244;2023-03-03T05:04:17;-2.60;99.90
49855;DHT22;35752;52.164;21.244;2023-03-03T05:06:42;-2.50;99.90
49855;DHT22;35752;52.164;21.244;2023-03-03T05:09:08;-2.60;99.90
49855;DHT22;35752;52.164;21.244;2023-03-03T05:11:34;-2.60;99.90
49855;DHT22;35752;52.164;21.244;2023-03-03T05:13:59;-2.70;99.90
49855;DHT22;35752;52.164;21.244;2023-03-03T05:16:25;-2.70;99.90
49855;DHT22;35752;52.164;21.244;2023-03-03T05:18:50;-2.60;99.90
49855;DHT22;35752;52.164;21.244;2023-03-03T05:21:16;-2.60;99.90
49855;DHT22;35752;52.164;21.244;2023-03-03T05:23:41;-2.60;99.90
49855;DHT22;35752;52.164;21.244;2023-03-03T05:26:07;-2.50;99.90
49855;DHT22;35752;52.164;21.244;2023-03-03T05:28:32;-2.40;99.90
49855;DHT22;35752;52.164;21.244;2023-03-03T05:30:58;-2.30;99.90
49855;DHT22;35752;52.164;21.244;2023-03-03T05:33:23;-2.40;99.90
49855;DHT22;35752;52.164;21.244;2023-03-03T05:35:56;-2.40;99.90
49855;DHT22;35752;52.164;21.244;2023-03-03T05:38:22;-2.40;99.90
49855;DHT22;35752;52.164;21.244;2023-03-03T05:40:48;-2.30;99.90
49855;DHT22;35752;52.164;21.244;2023-03-03T05:43:13;-2.40;99.90
49855;DHT22;35752;52.164;21.244;2023-03-03T05:45:39;-2.30;99.90
49855;DHT22;35752;52.164;21.244;2023-03-03T05:48:04;-2.10;99.90
49855;DHT22;35752;52.164;21.244;2023-03-03T05:50:30;-2.00;99.90
49855;DHT22;35752;52.164;21.244;2023-03-03T05:52:56;-1.80;99.90
49855;DHT22;35752;52.164;21.244;2023-03-03T05:55:21;-1.70;99.90
49855;DHT22;35752;52.164;21.244;2023-03-03T05:57:47;-1.60;99.90
49855;DHT22;35752;52.164;21.244;2023-03-03T06:00:13;-1.50;99.90
49855;DHT22;35752;52.164;21.244;2023-03-03T06:02:40;-1.40;99.90
49855;DHT22;35752;52.164;21.244;2023-03-03T06:05:06;-1.30;99.90
49855;DHT22;35752;52.164;21.244;2023-03-03T06:07:31;-1.30;99.90
49855;DHT22;35752;52.164;21.244;2023-03-03T06:09:57;-1.20;99.90
49855;DHT22;35752;52.164;21.244;2023-03-03T06:12:23;-1.10;99.90
49855;DHT22;35752;52.164;21.244;2023-03-03T06:14:48;-1.10;99.90
49855;DHT22;35752;52.164;21.244;2023-03-03T06:17:14;-1.10;99.90
49855;DHT22;35752;52.164;21.244;2023-03-03T06:19:39;-1.00;99.90
49855;DHT22;35752;52.164;21.244;2023-03-03T06:22:06;-1.00;99.90
49855;DHT22;35752;52.164;21.244;2023-03-03T06:24:31;-0.90;99.90
49855;DHT22;35752;52.164;21.244;2023-03-03T06:26:57;-0.80;99.90
49855;DHT22;35752;52.164;21.244;2023-03-03T06:29:22;-0.80;99.90
49855;DHT22;35752;52.164;21.244;2023-03-03T06:31:48;-0.70;99.90
49855;DHT22;35752;52.164;21.244;2023-03-03T06:34:14;-0.70;99.90
49855;DHT22;35752;52.164;21.244;2023-03-03T06:36:39;-0.60;99.90
49855;DHT22;35752;52.164;21.244;2023-03-03T06:39:05;-0.50;99.90
49855;DHT22;35752;52.164;21.244;2023-03-03T06:41:30;-0.40;99.90
49855;DHT22;35752;52.164;21.244;2023-03-03T06:43:56;-0.40;99.90
49855;DHT22;35752;52.164;21.244;2023-03-03T06:46:22;-0.40;99.90
49855;DHT22;35752;52.164;21.244;2023-03-03T06:48:48;-0.20;99.90
49855;DHT22;35752;52.164;21.244;2023-03-03T06:53:42;-0.10;99.90
49855;DHT22;35752;52.164;21.244;2023-03-03T06:56:08;-0.10;99.90
49855;DHT22;35752;52.164;21.244;2023-03-03T06:58:34;-0.20;99.90
49855;DHT22;35752;52.164;21.244;2023-03-03T07:01:00;-0.20;99.90
49855;DHT22;35752;52.164;21.244;2023-03-03T07:03:30;-0.20;99.90
49855;DHT22;35752;52.164;21.244;2023-03-03T07:05:57;-0.30;99.90
49855;DHT22;35752;52.164;21.244;2023-03-03T07:08:23;-0.30;99.90
49855;DHT22;35752;52.164;21.244;2023-03-03T07:10:49;-0.30;99.90
49855;DHT22;35752;52.164;21.244;2023-03-03T07:13:25;-0.40;99.90
49855;DHT22;35752;52.164;21.244;2023-03-03T07:15:51;-0.20;99.90
49855;DHT22;35752;52.164;21.244;2023-03-03T07:20:54;-0.20;99.90
49855;DHT22;35752;52.164;21.244;2023-03-03T07:23:20;-0.10;99.90
49855;DHT22;35752;52.164;21.244;2023-03-03T07:25:47;-0.10;99.90
49855;DHT22;35752;52.164;21.244;2023-03-03T07:28:21;-0.10;99.90
49855;DHT22;35752;52.164;21.244;2023-03-03T07:30:47;-0.10;99.90
49855;DHT22;35752;52.164;21.244;2023-03-03T07:33:30;-0.20;99.90
49855;DHT22;35752;52.164;21.244;2023-03-03T07:35:58;-0.10;99.90
49855;DHT22;35752;52.164;21.244;2023-03-03T07:38:37;-0.10;99.90
49855;DHT22;35752;52.164;21.244;2023-03-03T07:41:14;-0.20;99.90
49855;DHT22;35752;52.164;21.244;2023-03-03T07:44:25;-0.20;99.90
49855;DHT22;35752;52.164;21.244;2023-03-03T07:46:43;-0.20;99.90
49855;DHT22;35752;52.164;21.244;2023-03-03T07:49:19;-0.20;99.90
49855;DHT22;35752;52.164;21.244;2023-03-03T07:51:46;-0.20;99.90
49855;DHT22;35752;52.164;21.244;2023-03-03T07:56:46;-0.20;99.90
49855;DHT22;35752;52.164;21.244;2023-03-03T07:59:17;-0.10;99.90
49855;DHT22;35752;52.164;21.244;2023-03-03T08:01:45;-0.10;99.90
49855;DHT22;35752;52.164;21.244;2023-03-03T08:06:48;-0.10;99.90
49855;DHT22;35752;52.164;21.244;2023-03-03T08:09:26;-0.20;99.90
49855;DHT22;35752;52.164;21.244;2023-03-03T08:11:55;-0.30;99.90
49855;DHT22;35752;52.164;21.244;2023-03-03T08:14:24;-0.30;99.90
49855;DHT22;35752;52.164;21.244;2023-03-03T08:16:50;-0.10;99.90
49855;DHT22;35752;52.164;21.244;2023-03-03T08:19:16;-0.10;99.90
49855;DHT22;35752;52.164;21.244;2023-03-03T08:21:42;0.00;99.90
49855;DHT22;35752;52.164;21.244;2023-03-03T08:24:08;0.00;99.90
49855;DHT22;35752;52.164;21.244;2023-03-03T08:26:33;0.10;99.90
49855;DHT22;35752;52.164;21.244;2023-03-03T08:28:59;0.10;99.90
49855;DHT22;35752;52.164;21.244;2023-03-03T08:31:25;0.20;99.90
49855;DHT22;35752;52.164;21.244;2023-03-03T08:33:51;0.20;99.90
49855;DHT22;35752;52.164;21.244;2023-03-03T08:36:17;0.30;99.90
49855;DHT22;35752;52.164;21.244;2023-03-03T08:38:43;0.30;99.90
49855;DHT22;35752;52.164;21.244;2023-03-03T08:41:08;0.40;99.90
49855;DHT22;35752;52.164;21.244;2023-03-03T08:43:34;0.30;99.90
49855;DHT22;35752;52.164;21.244;2023-03-03T08:46:00;0.50;99.90
49855;DHT22;35752;52.164;21.244;2023-03-03T08:48:26;0.50;99.90
49855;DHT22;35752;52.164;21.244;2023-03-03T08:50:52;0.60;99.90
49855;DHT22;35752;52.164;21.244;2023-03-03T08:53:18;0.70;99.90
49855;DHT22;35752;52.164;21.244;2023-03-03T08:55:44;0.80;99.90
49855;DHT22;35752;52.164;21.244;2023-03-03T08:58:10;0.70;99.90
49855;DHT22;35752;52.164;21.244;2023-03-03T09:00:35;0.60;99.90
49855;DHT22;35752;52.164;21.244;2023-03-03T09:03:01;0.60;99.90
49855;DHT22;35752;52.164;21.244;2023-03-03T09:05:27;0.70;99.90
49855;DHT22;35752;52.164;21.244;2023-03-03T09:07:53;0.80;99.90
49855;DHT22;35752;52.164;21.244;2023-03-03T09:10:21;0.70;99.90
49855;DHT22;35752;52.164;21.244;2023-03-03T09:12:51;0.80;99.90
49855;DHT22;35752;52.164;21.244;2023-03-03T09:17:43;0.80;99.90
49855;DHT22;35752;52.164;21.244;2023-03-03T09:22:49;0.80;99.90
49855;DHT22;35752;52.164;21.244;2023-03-03T09:27:51;0.90;99.90
49855;DHT22;35752;52.164;21.244;2023-03-03T09:32:48;1.00;99.90
49855;DHT22;35752;52.164;21.244;2023-03-03T09:37:51;1.10;99.90
49855;DHT22;35752;52.164;21.244;2023-03-03T09:43:03;1.10;99.90
49855;DHT22;35752;52.164;21.244;2023-03-03T09:55:39;1.20;99.90
49855;DHT22;35752;52.164;21.244;2023-03-03T09:58:15;1.20;99.90
49855;DHT22;35752;52.164;21.244;2023-03-03T10:00:54;1.20;99.90
49855;DHT22;35752;52.164;21.244;2023-03-03T10:05:55;1.30;99.90
49855;DHT22;35752;52.164;21.244;2023-03-03T10:08:31;1.20;99.90
49855;DHT22;35752;52.164;21.244;2023-03-03T10:13:54;1.30;99.90
49855;DHT22;35752;52.164;21.244;2023-03-03T10:18:46;1.20;99.90
49855;DHT22;35752;52.164;21.244;2023-03-03T10:21:16;1.30;99.90
49855;DHT22;35752;52.164;21.244;2023-03-03T10:31:57;1.40;99.90
49855;DHT22;35752;52.164;21.244;2023-03-03T10:37:23;1.30;99.90
49855;DHT22;35752;52.164;21.244;2023-03-03T10:47:38;1.00;99.90
49855;DHT22;35752;52.164;21.244;2023-03-03T10:50:09;1.10;99.90
49855;DHT22;35752;52.164;21.244;2023-03-03T10:52:47;1.10;99.90
49855;DHT22;35752;52.164;21.244;2023-03-03T11:05:50;1.10;99.90
49855;DHT22;35752;52.164;21.244;2023-03-03T11:08:40;1.10;99.90
49855;DHT22;35752;52.164;21.244;2023-03-03T11:11:51;1.00;99.90
49855;DHT22;35752;52.164;21.244;2023-03-03T11:18:58;1.00;99.90
49855;DHT22;35752;52.164;21.244;2023-03-03T11:24:01;1.00;99.90
49855;DHT22;35752;52.164;21.244;2023-03-03T11:29:10;1.00;99.90
49855;DHT22;35752;52.164;21.244;2023-03-03T11:37:03;0.90;99.90
49855;DHT22;35752;52.164;21.244;2023-03-03T11:39:29;0.90;99.90
49855;DHT22;35752;52.164;21.244;2023-03-03T11:44:28;1.00;99.90
49855;DHT22;35752;52.164;21.244;2023-03-03T11:49:30;0.80;99.90
49855;DHT22;35752;52.164;21.244;2023-03-03T11:57:23;0.80;99.90
49855;DHT22;35752;52.164;21.244;2023-03-03T12:02:44;0.80;99.90
49855;DHT22;35752;52.164;21.244;2023-03-03T12:07:53;0.80;99.90
49855;DHT22;35752;52.164;21.244;2023-03-03T12:13:04;0.70;99.90
49855;DHT22;35752;52.164;21.244;2023-03-03T12:15:43;0.70;99.90
49855;DHT22;35752;52.164;21.244;2023-03-03T12:25:37;0.60;99.90
49855;DHT22;35752;52.164;21.244;2023-03-03T12:28:18;0.70;99.90
49855;DHT22;35752;52.164;21.244;2023-03-03T12:44:52;0.70;99.90
49855;DHT22;35752;52.164;21.244;2023-03-03T12:52:42;0.70;99.90
49855;DHT22;35752;52.164;21.244;2023-03-03T12:57:42;0.80;99.90
49855;DHT22;35752;52.164;21.244;2023-03-03T13:00:26;0.80;99.90
49855;DHT22;35752;52.164;21.244;2023-03-03T13:02:57;0.70;99.90
49855;DHT22;35752;52.164;21.244;2023-03-03T13:15:30;0.70;99.90
49855;DHT22;35752;52.164;21.244;2023-03-03T13:20:33;0.70;99.90
49855;DHT22;35752;52.164;21.244;2023-03-03T13:23:05;0.70;99.90
49855;DHT22;35752;52.164;21.244;2023-03-03T13:30:42;0.80;99.90
49855;DHT22;35752;52.164;21.244;2023-03-03T13:33:24;0.70;99.90
49855;DHT22;35752;52.164;21.244;2023-03-03T13:35:54;0.60;99.90
49855;DHT22;35752;52.164;21.244;2023-03-03T13:38:22;0.70;99.90
49855;DHT22;35752;52.164;21.244;2023-03-03T13:40:49;0.70;99.90
49855;DHT22;35752;52.164;21.244;2023-03-03T13:43:29;0.70;99.90
49855;DHT22;35752;52.164;21.244;2023-03-03T13:51:03;0.80;99.90
49855;DHT22;35752;52.164;21.244;2023-03-03T13:58:48;0.80;99.90
49855;DHT22;35752;52.164;21.244;2023-03-03T14:01:22;0.80;99.90
49855;DHT22;35752;52.164;21.244;2023-03-03T14:06:26;0.60;99.90
49855;DHT22;35752;52.164;21.244;2023-03-03T14:11:46;0.60;99.90
49855;DHT22;35752;52.164;21.244;2023-03-03T14:16:59;0.50;99.90
49855;DHT22;35752;52.164;21.244;2023-03-03T14:19:45;0.60;99.90
49855;DHT22;35752;52.164;21.244;2023-03-03T14:22:19;0.60;99.90
49855;DHT22;35752;52.164;21.244;2023-03-03T14:25:00;0.60;99.90
49855;DHT22;35752;52.164;21.244;2023-03-03T14:27:28;0.60;99.90
49855;DHT22;35752;52.164;21.244;2023-03-03T14:29:58;0.60;99.90
49855;DHT22;35752;52.164;21.244;2023-03-03T14:32:24;0.70;99.90
49855;DHT22;35752;52.164;21.244;2023-03-03T14:34:57;0.70;99.90
49855;DHT22;35752;52.164;21.244;2023-03-03T14:37:24;0.60;99.90
49855;DHT22;35752;52.164;21.244;2023-03-03T14:42:34;0.60;99.90
49855;DHT22;35752;52.164;21.244;2023-03-03T14:45:01;0.60;99.90
49855;DHT22;35752;52.164;21.244;2023-03-03T14:47:28;0.60;99.90
49855;DHT22;35752;52.164;21.244;2023-03-03T14:49:56;0.70;99.90
49855;DHT22;35752;52.164;21.244;2023-03-03T14:52:25;0.70;99.90
49855;DHT22;35752;52.164;21.244;2023-03-03T14:54:52;0.70;99.90
49855;DHT22;35752;52.164;21.244;2023-03-03T15:05:23;0.70;99.90
49855;DHT22;35752;52.164;21.244;2023-03-03T15:07:53;0.60;99.90
49855;DHT22;35752;52.164;21.244;2023-03-03T15:10:27;0.70;99.90
49855;DHT22;35752;52.164;21.244;2023-03-03T15:12:53;0.60;99.90
49855;DHT22;35752;52.164;21.244;2023-03-03T15:15:20;0.50;99.90
49855;DHT22;35752;52.164;21.244;2023-03-03T15:22:50;0.60;99.90
49855;DHT22;35752;52.164;21.244;2023-03-03T15:28:04;0.60;99.90
49855;DHT22;35752;52.164;21.244;2023-03-03T15:30:56;0.60;99.90
49855;DHT22;35752;52.164;21.244;2023-03-03T15:43:19;0.50;99.90
49855;DHT22;35752;52.164;21.244;2023-03-03T15:45:59;0.50;99.90
49855;DHT22;35752;52.164;21.244;2023-03-03T15:48:50;0.50;99.90
49855;DHT22;35752;52.164;21.244;2023-03-03T15:51:32;0.50;99.90
49855;DHT22;35752;52.164;21.244;2023-03-03T16:01:40;0.40;99.90
49855;DHT22;35752;52.164;21.244;2023-03-03T16:04:17;0.40;99.90
49855;DHT22;35752;52.164;21.244;2023-03-03T16:12:27;0.40;99.90
49855;DHT22;35752;52.164;21.244;2023-03-03T16:30:45;0.30;99.90
49855;DHT22;35752;52.164;21.244;2023-03-03T16:33:31;0.30;99.90
49855;DHT22;35752;52.164;21.244;2023-03-03T16:38:36;0.30;99.90
49855;DHT22;35752;52.164;21.244;2023-03-03T16:41:03;0.30;99.90
49855;DHT22;35752;52.164;21.244;2023-03-03T16:46:19;0.30;99.90
49855;DHT22;35752;52.164;21.244;2023-03-03T16:49:07;0.30;99.90
49855;DHT22;35752;52.164;21.244;2023-03-03T16:51:38;0.20;99.90
49855;DHT22;35752;52.164;21.244;2023-03-03T16:59:35;0.20;99.90
49855;DHT22;35752;52.164;21.244;2023-03-03T17:10:04;0.30;99.90
49855;DHT22;35752;52.164;21.244;2023-03-03T17:12:50;0.30;99.90
49855;DHT22;35752;52.164;21.244;2023-03-03T17:28:11;0.20;99.90
49855;DHT22;35752;52.164;21.244;2023-03-03T17:46:21;0.10;99.90
49855;DHT22;35752;52.164;21.244;2023-03-03T17:48:53;0.20;99.90
49855;DHT22;35752;52.164;21.244;2023-03-03T18:11:58;0.20;99.90
49855;DHT22;35752;52.164;21.244;2023-03-03T18:30:12;0.20;99.90
49855;DHT22;35752;52.164;21.244;2023-03-03T18:32:46;0.30;99.90
49855;DHT22;35752;52.164;21.244;2023-03-03T18:35:25;0.30;99.90
49855;DHT22;35752;52.164;21.244;2023-03-03T18:37:53;0.30;99.90
49855;DHT22;35752;52.164;21.244;2023-03-03T18:42:45;0.20;99.90
49855;DHT22;35752;52.164;21.244;2023-03-03T18:50:35;0.20;99.90
49855;DHT22;35752;52.164;21.244;2023-03-03T19:05:58;0.20;99.90
49855;DHT22;35752;52.164;21.244;2023-03-03T19:10:59;0.10;99.90
49855;DHT22;35752;52.164;21.244;2023-03-03T19:15:57;0.20;99.90
49855;DHT22;35752;52.164;21.244;2023-03-03T19:18:24;0.20;99.90
49855;DHT22;35752;52.164;21.244;2023-03-03T19:20:54;0.20;99.90
49855;DHT22;35752;52.164;21.244;2023-03-03T19:23:21;0.20;99.90
49855;DHT22;35752;52.164;21.244;2023-03-03T19:28:36;0.20;99.90
49855;DHT22;35752;52.164;21.244;2023-03-03T19:31:16;0.20;99.90
49855;DHT22;35752;52.164;21.244;2023-03-03T19:33:48;0.20;99.90
49855;DHT22;35752;52.164;21.244;2023-03-03T19:41:38;0.20;99.90
49855;DHT22;35752;52.164;21.244;2023-03-03T19:51:31;0.30;99.90
49855;DHT22;35752;52.164;21.244;2023-03-03T19:54:16;0.30;99.90
49855;DHT22;35752;52.164;21.244;2023-03-03T19:56:47;0.30;99.90
49855;DHT22;35752;52.164;21.244;2023-03-03T20:23:10;0.30;99.90
49855;DHT22;35752;52.164;21.244;2023-03-03T20:33:32;0.40;99.90
49855;DHT22;35752;52.164;21.244;2023-03-03T20:46:21;0.40;99.90
49855;DHT22;35752;52.164;21.244;2023-03-03T20:51:35;0.40;99.90
49855;DHT22;35752;52.164;21.244;2023-03-03T20:59:23;0.50;99.90
49855;DHT22;35752;52.164;21.244;2023-03-03T21:01:52;0.50;99.90
49855;DHT22;35752;52.164;21.244;2023-03-03T21:04:26;0.50;99.90
49855;DHT22;35752;52.164;21.244;2023-03-03T21:06:52;0.50;99.90
49855;DHT22;35752;52.164;21.244;2023-03-03T21:11:56;0.50;99.90
49855;DHT22;35752;52.164;21.244;2023-03-03T21:14:23;0.50;99.90
49855;DHT22;35752;52.164;21.244;2023-03-03T21:16:49;0.50;99.90
49855;DHT22;35752;52.164;21.244;2023-03-03T21:19:23;0.50;99.90
49855;DHT22;35752;52.164;21.244;2023-03-03T21:21:50;0.60;99.90
49855;DHT22;35752;52.164;21.244;2023-03-03T21:24:16;0.60;99.90
49855;DHT22;35752;52.164;21.244;2023-03-03T21:29:19;0.50;99.90
49855;DHT22;35752;52.164;21.244;2023-03-03T21:31:49;0.60;99.90
49855;DHT22;35752;52.164;21.244;2023-03-03T21:34:19;0.60;99.90
49855;DHT22;35752;52.164;21.244;2023-03-03T21:36:47;0.60;99.90
49855;DHT22;35752;52.164;21.244;2023-03-03T21:39:20;0.60;99.90
49855;DHT22;35752;52.164;21.244;2023-03-03T21:41:53;0.60;99.90
49855;DHT22;35752;52.164;21.244;2023-03-03T21:46:53;0.70;99.90
49855;DHT22;35752;52.164;21.244;2023-03-03T21:49:19;0.60;99.90
49855;DHT22;35752;52.164;21.244;2023-03-03T21:51:44;0.70;99.90
49855;DHT22;35752;52.164;21.244;2023-03-03T21:54:10;0.70;99.90
49855;DHT22;35752;52.164;21.244;2023-03-03T21:56:35;0.70;99.90
49855;DHT22;35752;52.164;21.244;2023-03-03T21:59:02;0.80;99.90
49855;DHT22;35752;52.164;21.244;2023-03-03T22:01:27;0.70;99.90
49855;DHT22;35752;52.164;21.244;2023-03-03T22:03:53;0.70;99.90
49855;DHT22;35752;52.164;21.244;2023-03-03T22:06:18;0.70;99.90
49855;DHT22;35752;52.164;21.244;2023-03-03T22:08:44;0.70;99.90
49855;DHT22;35752;52.164;21.244;2023-03-03T22:11:10;0.70;99.90
49855;DHT22;35752;52.164;21.244;2023-03-03T22:13:35;0.70;99.90
49855;DHT22;35752;52.164;21.244;2023-03-03T22:16:01;0.70;99.90
49855;DHT22;35752;52.164;21.244;2023-03-03T22:18:26;0.70;99.90
49855;DHT22;35752;52.164;21.244;2023-03-03T22:20:52;0.80;99.90
49855;DHT22;35752;52.164;21.244;2023-03-03T22:23:17;0.80;99.90
49855;DHT22;35752;52.164;21.244;2023-03-03T22:25:43;0.80;99.90
49855;DHT22;35752;52.164;21.244;2023-03-03T22:28:09;0.80;99.90
49855;DHT22;35752;52.164;21.244;2023-03-03T22:30:34;0.80;99.90
49855;DHT22;35752;52.164;21.244;2023-03-03T22:33:00;0.80;99.90
49855;DHT22;35752;52.164;21.244;2023-03-03T22:35:25;0.80;99.90
49855;DHT22;35752;52.164;21.244;2023-03-03T22:37:51;0.80;99.90
49855;DHT22;35752;52.164;21.244;2023-03-03T22:40:16;0.80;99.90
49855;DHT22;35752;52.164;21.244;2023-03-03T22:42:42;0.80;99.90
49855;DHT22;35752;52.164;21.244;2023-03-03T22:45:08;0.80;99.90